createdAt,value
2018-10-05T00:01:41.261Z,27.50
2018-10-05T00:04:08.496Z,27.30
2018-10-05T00:06:35.848Z,26.97
2018-10-05T00:09:04.970Z,27.47
2018-10-05T00:11:32.199Z,28.47
2018-10-05T00:13:59.578Z,26.73
2018-10-05T00:16:26.815Z,28.67
2018-10-05T00:18:54.050Z,26.53
2018-10-05T00:21:21.415Z,27.40
2018-10-05T00:23:48.652Z,28.67
2018-10-05T00:26:15.888Z,26.70
2018-10-05T00:28:43.223Z,27.37
2018-10-05T00:31:10.525Z,27.30
2018-10-05T00:33:37.787Z,27.40
2018-10-05T00:36:05.153Z,25.97
2018-10-05T00:38:32.404Z,25.37
2018-10-05T00:41:00.544Z,26.40
2018-10-05T00:43:28.834Z,25.17
2018-10-05T00:45:56.102Z,25.03
2018-10-05T00:48:23.655Z,24.23
2018-10-05T00:50:50.938Z,24.70
2018-10-05T00:53:18.284Z,24.17
2018-10-05T00:55:45.470Z,23.27
2018-10-05T00:58:12.748Z,23.30
2018-10-05T01:00:40.025Z,23.00
2018-10-05T01:03:07.328Z,22.20
2018-10-05T01:05:34.694Z,23.40
2018-10-05T01:08:02.003Z,21.73
2018-10-05T01:10:29.492Z,20.83
2018-10-05T01:12:56.841Z,23.13
2018-10-05T01:15:24.079Z,22.20
2018-10-05T01:17:51.303Z,20.97
2018-10-05T01:20:18.611Z,21.07
2018-10-05T01:22:45.991Z,20.37
2018-10-05T01:25:13.236Z,20.13
2018-10-05T01:27:40.595Z,21.40
2018-10-05T01:30:11.565Z,20.93
2018-10-05T01:32:39.512Z,20.47
2018-10-05T01:35:06.916Z,19.63
2018-10-05T01:37:34.207Z,19.87
2018-10-05T01:40:01.545Z,18.73
2018-10-05T01:42:29.109Z,18.83
2018-10-05T01:44:56.335Z,18.23
2018-10-05T01:47:23.543Z,19.87
2018-10-05T01:49:50.966Z,20.13
2018-10-05T01:52:18.194Z,19.47
2018-10-05T01:54:45.500Z,18.63
2018-10-05T01:57:12.833Z,19.33
2018-10-05T01:59:40.135Z,19.43
2018-10-05T02:02:07.414Z,19.23
2018-10-05T02:04:34.785Z,18.13
2018-10-05T02:07:02.032Z,18.63
2018-10-05T02:09:29.268Z,19.57
2018-10-05T02:11:56.604Z,20.17
2018-10-05T02:14:23.852Z,19.83
2018-10-05T02:16:51.091Z,19.43
2018-10-05T02:19:18.342Z,20.47
2018-10-05T02:21:45.630Z,21.93
2018-10-05T02:24:12.882Z,20.90
2018-10-05T02:26:40.223Z,20.30
2018-10-05T02:29:07.473Z,21.37
2018-10-05T02:31:34.714Z,21.43
2018-10-05T02:34:02.059Z,21.33
2018-10-05T02:36:29.291Z,20.67
2018-10-05T02:38:56.537Z,22.00
2018-10-05T02:41:23.790Z,22.73
2018-10-05T02:43:51.102Z,23.13
2018-10-05T02:46:18.343Z,22.37
2018-10-05T02:48:45.658Z,22.37
2018-10-05T02:51:12.935Z,22.17
2018-10-05T02:53:40.165Z,22.80
2018-10-05T02:56:07.476Z,23.13
2018-10-05T02:58:34.706Z,22.20
2018-10-05T03:01:13.617Z,21.53
2018-10-05T03:03:40.895Z,23.10
2018-10-05T03:06:08.156Z,21.50
2018-10-05T03:08:35.442Z,22.20
2018-10-05T03:11:02.690Z,24.20
2018-10-05T03:13:29.919Z,22.03
2018-10-05T03:15:57.174Z,23.07
2018-10-05T03:18:24.404Z,21.80
2018-10-05T03:20:51.643Z,21.23
2018-10-05T03:23:18.900Z,19.93
2018-10-05T03:25:46.151Z,20.43
2018-10-05T03:28:13.394Z,19.27
2018-10-05T03:30:40.768Z,19.10
2018-10-05T03:33:08.008Z,19.03
2018-10-05T03:35:35.270Z,19.13
2018-10-05T03:38:02.685Z,17.80
2018-10-05T03:40:29.904Z,18.63
2018-10-05T03:42:57.144Z,18.67
2018-10-05T03:45:24.489Z,17.20
2018-10-05T03:47:51.923Z,18.73
2018-10-05T03:50:19.156Z,17.90
2018-10-05T03:52:46.500Z,17.63
2018-10-05T03:55:13.812Z,17.80
2018-10-05T03:57:41.059Z,18.33
2018-10-05T04:00:08.343Z,17.77
2018-10-05T04:02:35.596Z,18.10
2018-10-05T04:05:02.919Z,17.87
2018-10-05T04:07:30.230Z,17.67
2018-10-05T04:09:57.463Z,17.77
2018-10-05T04:12:24.715Z,18.30
2018-10-05T04:14:52.064Z,18.93
2018-10-05T04:17:19.404Z,18.73
2018-10-05T04:19:46.667Z,18.30
2018-10-05T04:22:18.806Z,18.40
2018-10-05T04:24:46.051Z,17.83
2018-10-05T04:27:13.388Z,18.27
2018-10-05T04:29:40.814Z,18.23
2018-10-05T04:32:08.044Z,18.07
2018-10-05T04:34:35.307Z,17.87
2018-10-05T04:37:02.676Z,18.23
2018-10-05T04:39:29.972Z,18.07
2018-10-05T04:41:57.206Z,18.20
2018-10-05T04:44:24.574Z,18.40
2018-10-05T04:46:51.867Z,20.00
2018-10-05T04:49:19.104Z,19.80
2018-10-05T04:51:46.451Z,19.50
2018-10-05T04:54:13.691Z,20.43
2018-10-05T04:56:41.040Z,22.83
2018-10-05T04:59:08.348Z,22.33
2018-10-05T05:01:35.652Z,25.47
2018-10-05T05:04:02.907Z,27.07
2018-10-05T05:06:30.310Z,25.57
2018-10-05T05:08:57.540Z,27.43
2018-10-05T05:11:24.835Z,28.57
2018-10-05T05:13:52.255Z,28.63
2018-10-05T05:16:19.488Z,28.13
2018-10-05T05:18:46.711Z,30.90
2018-10-05T05:21:14.055Z,33.13
2018-10-05T05:23:41.328Z,32.60
2018-10-05T05:26:08.621Z,32.67
2018-10-05T05:28:36.001Z,31.93
2018-10-05T05:31:03.244Z,31.60
2018-10-05T05:33:30.652Z,31.87
2018-10-05T05:35:58.008Z,32.50
2018-10-05T05:38:25.279Z,33.37
2018-10-05T05:40:52.640Z,31.97
2018-10-05T05:43:20.031Z,31.37
2018-10-05T05:45:47.325Z,32.47
2018-10-05T05:48:14.609Z,32.20
2018-10-05T05:50:42.039Z,30.70
2018-10-05T05:53:09.491Z,33.33
2018-10-05T05:55:37.102Z,33.40
2018-10-05T05:58:04.463Z,33.33
2018-10-05T06:00:31.744Z,33.37
2018-10-05T06:02:58.994Z,31.27
2018-10-05T06:05:26.379Z,33.57
2018-10-05T06:07:53.704Z,34.03
2018-10-05T06:10:20.964Z,32.10
2018-10-05T06:12:48.347Z,33.37
2018-10-05T06:15:15.588Z,35.07
2018-10-05T06:17:42.840Z,34.77
2018-10-05T06:20:10.146Z,32.50
2018-10-05T06:22:37.423Z,32.40
2018-10-05T06:25:04.965Z,33.70
2018-10-05T06:27:32.388Z,34.83
2018-10-05T06:29:59.565Z,32.50
2018-10-05T06:32:26.802Z,32.37
2018-10-05T06:34:54.144Z,33.77
2018-10-05T06:37:24.503Z,31.73
2018-10-05T06:39:51.722Z,32.73
2018-10-05T06:42:19.075Z,31.63
2018-10-05T06:44:46.315Z,31.93
2018-10-05T06:47:13.544Z,31.17
2018-10-05T06:49:40.883Z,31.27
2018-10-05T06:52:08.151Z,32.47
2018-10-05T06:54:35.400Z,32.70
2018-10-05T06:57:02.776Z,30.93
2018-10-05T06:59:30.115Z,31.00
2018-10-05T07:01:57.388Z,30.33
2018-10-05T07:04:24.782Z,31.60
2018-10-05T07:06:52.031Z,28.73
2018-10-05T07:09:19.267Z,30.53
2018-10-05T07:11:46.606Z,31.33
2018-10-05T07:14:13.844Z,29.77
2018-10-05T07:16:41.139Z,32.17
2018-10-05T07:19:08.479Z,29.80
2018-10-05T07:21:35.732Z,29.47
2018-10-05T07:24:03.031Z,31.53
2018-10-05T07:26:30.397Z,30.97
2018-10-05T07:28:57.731Z,30.03
2018-10-05T07:31:24.963Z,30.17
2018-10-05T07:33:52.311Z,29.97
2018-10-05T07:36:19.556Z,29.93
2018-10-05T07:38:46.803Z,30.13
2018-10-05T07:41:14.157Z,29.47
2018-10-05T07:43:41.384Z,30.13
2018-10-05T07:46:08.654Z,29.60
2018-10-05T07:48:36.006Z,30.77
2018-10-05T07:51:03.259Z,31.70
2018-10-05T07:53:30.541Z,32.30
2018-10-05T07:55:58.646Z,33.80
2018-10-05T07:58:25.866Z,34.43
2018-10-05T08:00:53.081Z,35.63
2018-10-05T08:03:20.354Z,35.27
2018-10-05T08:05:47.638Z,35.00
2018-10-05T08:08:14.875Z,38.80
2018-10-05T08:10:42.171Z,37.50
2018-10-05T08:13:09.418Z,39.17
2018-10-05T08:15:36.684Z,39.13
2018-10-05T08:18:03.990Z,39.57
2018-10-05T08:20:31.230Z,38.43
2018-10-05T08:22:58.521Z,39.50
2018-10-05T08:25:25.896Z,41.60
2018-10-05T08:27:53.245Z,40.87
2018-10-05T08:30:20.413Z,41.33
2018-10-05T08:32:47.815Z,39.67
2018-10-05T08:35:15.124Z,39.10
2018-10-05T08:37:42.372Z,42.20
2018-10-05T08:40:10.312Z,37.23
2018-10-05T08:42:37.505Z,39.30
2018-10-05T08:45:04.779Z,41.67
2018-10-05T08:47:32.396Z,39.97
2018-10-05T08:50:00.019Z,41.77
2018-10-05T08:52:27.278Z,40.77
2018-10-05T08:54:54.639Z,42.30
2018-10-05T08:57:21.865Z,41.97
2018-10-05T08:59:49.143Z,41.73
2018-10-05T09:02:16.603Z,43.17
2018-10-05T09:04:43.867Z,40.30
2018-10-05T09:07:11.162Z,41.63
2018-10-05T09:09:38.552Z,42.70
2018-10-05T09:12:05.791Z,43.73
2018-10-05T09:14:33.038Z,43.00
2018-10-05T09:17:00.462Z,46.83
2018-10-05T09:19:27.816Z,47.07
2018-10-05T09:21:55.071Z,47.90
2018-10-05T09:24:22.417Z,47.90
2018-10-05T09:26:49.728Z,46.33
2018-10-05T09:29:17.004Z,46.90
2018-10-05T09:31:44.364Z,45.93
2018-10-05T09:34:11.606Z,47.30
2018-10-05T09:36:39.000Z,46.23
2018-10-05T09:39:07.071Z,48.37
2018-10-05T09:41:34.396Z,49.00
2018-10-05T09:44:02.196Z,50.07
2018-10-05T09:46:29.562Z,49.07
2018-10-05T09:48:56.803Z,46.70
2018-10-05T09:51:24.064Z,46.97
2018-10-05T09:53:51.327Z,48.37
2018-10-05T09:56:18.583Z,46.03
2018-10-05T09:58:45.818Z,46.93
2018-10-05T10:01:18.940Z,46.23
2018-10-05T10:03:46.210Z,46.27
2018-10-05T10:06:13.463Z,45.17
2018-10-05T10:08:40.818Z,46.20
2018-10-05T10:11:08.054Z,45.20
2018-10-05T10:13:35.466Z,45.43
2018-10-05T10:16:02.997Z,43.33
2018-10-05T10:18:30.225Z,47.07
2018-10-05T10:20:57.461Z,44.40
2018-10-05T10:23:24.813Z,45.53
2018-10-05T10:25:52.054Z,45.70
2018-10-05T10:28:19.333Z,41.33
2018-10-05T10:30:46.770Z,43.20
2018-10-05T10:33:14.039Z,44.77
2018-10-05T10:35:41.324Z,43.57
2018-10-05T10:38:08.711Z,42.87
2018-10-05T10:40:36.007Z,45.13
2018-10-05T10:43:03.227Z,41.97
2018-10-05T10:45:30.664Z,43.07
2018-10-05T10:47:57.942Z,42.80
2018-10-05T10:50:25.182Z,43.70
2018-10-05T10:52:52.550Z,41.43
2018-10-05T10:55:19.791Z,41.53
2018-10-05T10:57:47.010Z,41.43
2018-10-05T11:00:14.372Z,40.60
2018-10-05T11:02:41.651Z,40.77
2018-10-05T11:05:08.936Z,41.23
2018-10-05T11:07:36.406Z,39.47
2018-10-05T11:10:03.708Z,41.03
2018-10-05T11:12:30.993Z,42.10
2018-10-05T11:14:58.339Z,40.63
2018-10-05T11:17:25.570Z,38.43
2018-10-05T11:19:52.795Z,40.23
2018-10-05T11:22:20.147Z,40.27
2018-10-05T11:24:47.375Z,39.37
2018-10-05T11:27:14.615Z,38.67
2018-10-05T11:29:42.013Z,38.57
2018-10-05T11:32:09.443Z,38.37
2018-10-05T11:34:36.710Z,38.53
2018-10-05T11:37:04.148Z,39.70
2018-10-05T11:39:31.467Z,38.10
2018-10-05T11:41:58.705Z,38.37
2018-10-05T11:44:26.168Z,39.70
2018-10-05T11:46:53.421Z,39.40
2018-10-05T11:49:20.647Z,38.63
2018-10-05T11:51:47.985Z,37.77
2018-10-05T11:54:15.329Z,37.63
2018-10-05T11:56:42.610Z,38.47
2018-10-05T11:59:10.106Z,38.77
2018-10-05T12:01:37.363Z,38.13
2018-10-05T12:04:04.627Z,38.17
2018-10-05T12:06:32.007Z,37.30
2018-10-05T12:08:59.458Z,38.93
2018-10-05T12:11:26.726Z,39.90
2018-10-05T12:13:54.141Z,37.03
2018-10-05T12:16:21.362Z,39.60
2018-10-05T12:18:48.617Z,36.70
2018-10-05T12:21:15.948Z,37.73
2018-10-05T12:23:43.181Z,37.93
2018-10-05T12:26:10.472Z,37.50
2018-10-05T12:28:37.854Z,35.67
2018-10-05T12:31:05.168Z,37.47
2018-10-05T12:33:32.474Z,36.90
2018-10-05T12:35:59.892Z,35.73
2018-10-05T12:38:27.092Z,35.97
2018-10-05T12:40:54.343Z,34.63
2018-10-05T12:43:21.699Z,34.67
2018-10-05T12:45:48.966Z,34.40
2018-10-05T12:48:16.206Z,32.77
2018-10-05T12:50:43.576Z,33.37
2018-10-05T12:53:10.860Z,34.90
2018-10-05T12:55:38.191Z,33.77
2018-10-05T12:58:05.555Z,32.70
2018-10-05T13:00:32.842Z,34.10
2018-10-05T13:03:00.095Z,32.83
2018-10-05T13:05:27.487Z,31.83
2018-10-05T13:07:54.739Z,30.97
2018-10-05T13:10:21.976Z,32.13
2018-10-05T13:12:49.369Z,30.53
2018-10-05T13:15:16.578Z,31.37
2018-10-05T13:17:44.045Z,30.47
2018-10-05T13:20:11.448Z,32.93
2018-10-05T13:22:38.696Z,30.87
2018-10-05T13:25:05.964Z,31.90
2018-10-05T13:27:33.344Z,31.70
2018-10-05T13:30:00.609Z,31.63
2018-10-05T13:32:27.853Z,31.43
2018-10-05T13:34:55.275Z,30.67
2018-10-05T13:37:22.511Z,30.83
2018-10-05T13:39:49.756Z,30.50
2018-10-05T13:42:17.114Z,31.93
2018-10-05T13:44:44.340Z,30.87
2018-10-05T13:47:11.615Z,31.70
2018-10-05T13:49:38.998Z,33.13
2018-10-05T13:52:06.325Z,32.17
2018-10-05T13:54:33.588Z,31.53
2018-10-05T13:57:00.922Z,32.63
2018-10-05T13:59:28.204Z,31.33
2018-10-05T14:01:55.466Z,31.27
2018-10-05T14:04:22.870Z,33.20
2018-10-05T14:06:50.170Z,31.20
2018-10-05T14:09:17.409Z,31.97
2018-10-05T14:11:44.783Z,30.87
2018-10-05T14:14:12.029Z,33.90
2018-10-05T14:16:39.280Z,33.87
2018-10-05T14:19:06.585Z,34.03
2018-10-05T14:21:34.020Z,34.07
2018-10-05T14:24:01.549Z,35.03
2018-10-05T14:26:28.933Z,35.47
2018-10-05T14:28:56.171Z,33.87
2018-10-05T14:31:23.418Z,34.40
2018-10-05T14:33:50.964Z,33.13
2018-10-05T14:36:18.140Z,32.27
2018-10-05T14:38:45.410Z,32.87
2018-10-05T14:41:12.869Z,35.20
2018-10-05T14:43:40.120Z,33.63
2018-10-05T14:46:07.411Z,34.53
2018-10-05T14:48:34.708Z,34.57
2018-10-05T14:51:01.966Z,32.87
2018-10-05T14:53:29.241Z,33.77
2018-10-05T14:55:56.591Z,35.13
2018-10-05T14:58:23.856Z,33.40
2018-10-05T15:00:51.120Z,34.80
2018-10-05T15:03:18.487Z,34.30
2018-10-05T15:05:45.744Z,35.20
2018-10-05T15:08:13.037Z,33.47
2018-10-05T15:10:40.424Z,35.07
2018-10-05T15:13:07.754Z,33.63
2018-10-05T15:15:35.756Z,33.77
2018-10-05T15:18:03.131Z,34.10
2018-10-05T15:20:30.460Z,34.27
2018-10-05T15:22:57.769Z,32.47
2018-10-05T15:25:25.147Z,33.50
2018-10-05T15:27:52.410Z,33.83
2018-10-05T15:30:19.697Z,35.03
2018-10-05T15:32:47.186Z,34.40
2018-10-05T15:35:14.477Z,32.73
2018-10-05T15:37:41.746Z,36.33
2018-10-05T15:40:09.057Z,33.50
2018-10-05T15:42:36.417Z,34.90
2018-10-05T15:45:03.775Z,34.10
2018-10-05T15:47:31.174Z,35.93
2018-10-05T15:49:58.489Z,35.67
2018-10-05T15:52:25.824Z,36.93
2018-10-05T15:54:53.290Z,36.37
2018-10-05T15:57:20.589Z,34.77
2018-10-05T15:59:47.854Z,35.03
2018-10-05T16:02:15.384Z,36.60
2018-10-05T16:04:42.684Z,35.80
2018-10-05T16:07:09.949Z,35.10
2018-10-05T16:09:37.539Z,35.73
2018-10-05T16:12:04.863Z,36.07
2018-10-05T16:14:32.178Z,37.83
2018-10-05T16:16:59.521Z,37.53
2018-10-05T16:19:26.803Z,38.13
2018-10-05T16:21:55.107Z,37.57
2018-10-05T16:24:29.033Z,40.37
2018-10-05T16:26:56.328Z,38.40
2018-10-05T16:29:23.599Z,38.43
2018-10-05T16:31:50.878Z,38.17
2018-10-05T16:34:18.209Z,37.00
2018-10-05T16:36:45.516Z,37.27
2018-10-05T16:39:12.919Z,37.80
2018-10-05T16:41:40.295Z,39.13
2018-10-05T16:44:07.638Z,37.50
2018-10-05T16:46:36.504Z,38.57
2018-10-05T16:49:03.776Z,36.67
2018-10-05T16:51:31.095Z,38.53
2018-10-05T16:53:58.664Z,37.73
2018-10-05T16:56:26.016Z,36.80
2018-10-05T16:58:53.944Z,36.70
2018-10-05T17:01:45.642Z,37.17
2018-10-05T17:04:12.952Z,37.60
2018-10-05T17:06:40.223Z,38.00
2018-10-05T17:11:48.395Z,36.50
2018-10-05T17:14:15.859Z,37.67
2018-10-05T17:16:43.186Z,36.20
2018-10-05T17:19:10.502Z,35.47
2018-10-05T17:21:37.933Z,35.83
2018-10-05T17:24:05.279Z,35.63
2018-10-05T17:26:32.551Z,33.63
2018-10-05T17:28:59.971Z,33.60
2018-10-05T17:31:27.338Z,33.17
2018-10-05T17:33:54.599Z,35.30
2018-10-05T17:36:22.063Z,32.83
2018-10-05T17:38:49.406Z,33.07
2018-10-05T17:41:16.962Z,33.30
2018-10-05T17:43:44.433Z,33.17
2018-10-05T17:46:11.810Z,32.93
2018-10-05T17:48:39.195Z,31.60
2018-10-05T17:51:06.691Z,31.93
2018-10-05T17:53:33.973Z,33.10
2018-10-05T17:56:01.342Z,32.00
2018-10-05T17:58:28.739Z,33.60
2018-10-05T18:00:56.039Z,33.30
2018-10-05T18:03:23.267Z,33.97
2018-10-05T18:05:50.701Z,32.90
2018-10-05T18:08:18.068Z,33.23
2018-10-05T18:10:45.415Z,34.63
2018-10-05T18:13:12.787Z,34.70
2018-10-05T18:15:40.200Z,33.60
2018-10-05T18:18:07.867Z,32.13
2018-10-05T18:20:35.330Z,32.87
2018-10-05T18:23:02.611Z,33.40
2018-10-05T18:25:29.910Z,33.20
2018-10-05T18:27:57.343Z,33.13
2018-10-05T18:30:24.631Z,33.17
2018-10-05T18:32:51.983Z,31.83
2018-10-05T18:35:20.081Z,31.50
2018-10-05T18:37:47.381Z,32.33
2018-10-05T18:40:14.722Z,31.00
2018-10-05T18:42:42.346Z,30.47
2018-10-05T18:45:10.009Z,29.63
2018-10-05T18:47:37.404Z,30.00
2018-10-05T18:50:05.076Z,28.80
2018-10-05T18:52:32.532Z,27.70
2018-10-05T18:55:00.048Z,27.23
2018-10-05T18:57:28.882Z,26.00
2018-10-05T18:59:56.157Z,25.20
2018-10-05T19:02:23.511Z,25.00
2018-10-05T19:04:50.934Z,24.20
2018-10-05T19:07:18.291Z,22.17
2018-10-05T19:09:45.619Z,21.33
2018-10-05T19:12:13.021Z,20.30
2018-10-05T19:14:40.308Z,21.50
2018-10-05T19:17:07.616Z,20.10
2018-10-05T19:19:35.052Z,20.63
2018-10-05T19:22:02.344Z,19.93
2018-10-05T19:24:29.779Z,20.07
2018-10-05T19:26:57.357Z,18.97
2018-10-05T19:29:25.035Z,18.40
2018-10-05T19:31:52.337Z,19.80
2018-10-05T19:34:19.727Z,18.23
2018-10-05T19:36:47.058Z,15.83
2018-10-05T19:39:14.368Z,13.73
2018-10-05T19:41:41.932Z,13.97
2018-10-05T19:44:09.666Z,16.87
2018-10-05T19:46:37.240Z,17.07
2018-10-05T19:49:04.739Z,18.07
2018-10-05T19:51:32.150Z,17.57
2018-10-05T19:53:59.599Z,15.30
2018-10-05T19:56:26.996Z,12.80
2018-10-05T19:58:54.271Z,12.57
2018-10-05T20:01:22.218Z,12.80
2018-10-05T20:03:49.645Z,14.00
2018-10-05T20:06:17.001Z,14.47
2018-10-05T20:08:44.393Z,14.83
2018-10-05T20:11:12.006Z,15.40
2018-10-05T20:13:39.429Z,15.37
2018-10-05T20:16:06.773Z,16.63
2018-10-05T20:18:34.356Z,16.83
2018-10-05T20:21:01.741Z,16.33
2018-10-05T20:23:29.036Z,16.97
2018-10-05T20:25:56.479Z,16.73
2018-10-05T20:28:23.861Z,16.57
2018-10-05T20:30:51.387Z,15.70
2018-10-05T20:33:18.775Z,16.40
2018-10-05T20:35:46.078Z,16.17
2018-10-05T20:38:13.531Z,16.97
2018-10-05T20:40:40.950Z,16.23
2018-10-05T20:43:08.268Z,15.43
2018-10-05T20:45:35.568Z,14.93
2018-10-05T20:48:03.020Z,15.37
2018-10-05T20:50:30.360Z,14.67
2018-10-05T20:52:57.674Z,14.83
2018-10-05T20:55:25.108Z,12.80
2018-10-05T20:57:52.510Z,13.33
2018-10-05T21:00:19.816Z,14.00
2018-10-05T21:02:47.165Z,13.00
2018-10-05T21:05:14.544Z,13.17
2018-10-05T21:07:41.922Z,10.80
2018-10-05T21:10:09.353Z,10.87
2018-10-05T21:12:36.755Z,10.33
2018-10-05T21:15:04.112Z,11.30
2018-10-05T21:17:31.495Z,10.33
2018-10-05T21:19:58.760Z,9.60
2018-10-05T21:22:26.096Z,9.17
2018-10-05T21:24:53.560Z,9.30
2018-10-05T21:27:20.831Z,8.20
2018-10-05T21:29:48.199Z,9.23
2018-10-05T21:32:15.625Z,8.40
2018-10-05T21:34:42.947Z,7.70
2018-10-05T21:37:10.266Z,9.03
2018-10-05T21:39:37.773Z,7.83
2018-10-05T21:42:05.121Z,7.17
2018-10-05T21:44:32.427Z,6.83
2018-10-05T21:46:59.835Z,7.27
2018-10-05T21:49:27.085Z,7.13
2018-10-05T21:51:54.335Z,6.73
2018-10-05T21:54:21.728Z,6.23
2018-10-05T21:56:48.998Z,6.60
2018-10-05T21:59:16.312Z,7.10
2018-10-05T22:01:43.668Z,6.60
2018-10-05T22:04:11.045Z,6.53
2018-10-05T22:06:38.331Z,6.63
2018-10-05T22:09:07.961Z,6.50
2018-10-05T22:11:35.376Z,6.30
2018-10-05T22:14:02.659Z,6.37
2018-10-05T22:16:30.056Z,6.47
2018-10-05T22:18:57.360Z,6.13
2018-10-05T22:21:24.720Z,6.17
2018-10-05T22:23:52.059Z,5.83
2018-10-05T22:26:19.411Z,6.67
2018-10-05T22:28:46.724Z,6.13
2018-10-05T22:31:14.036Z,6.33
2018-10-05T22:33:41.306Z,5.80
2018-10-05T22:36:08.683Z,6.00
2018-10-05T22:38:36.089Z,6.27
2018-10-05T22:41:03.371Z,6.30
2018-10-05T22:43:30.647Z,6.70
2018-10-05T22:45:58.071Z,6.37
2018-10-05T22:48:25.392Z,6.03
2018-10-05T22:50:52.715Z,6.10
2018-10-05T22:53:20.208Z,6.40
2018-10-05T22:55:47.553Z,5.93
2018-10-05T22:58:14.942Z,6.07
2018-10-05T23:00:42.264Z,6.17
2018-10-05T23:03:09.539Z,6.30
2018-10-05T23:05:36.925Z,6.33
2018-10-05T23:08:04.249Z,6.30
2018-10-05T23:10:31.549Z,6.17
2018-10-05T23:12:58.823Z,5.90
2018-10-05T23:15:26.189Z,6.77
2018-10-05T23:17:53.491Z,6.40
2018-10-05T23:20:20.821Z,6.87
2018-10-05T23:22:48.244Z,6.57
2018-10-05T23:25:15.579Z,6.70
2018-10-05T23:27:43.006Z,6.47
2018-10-05T23:30:10.445Z,6.70
2018-10-05T23:32:37.776Z,7.33
2018-10-05T23:35:05.104Z,6.80
2018-10-05T23:37:32.500Z,6.60
2018-10-05T23:39:59.799Z,7.07
2018-10-05T23:42:27.076Z,7.53
2018-10-05T23:44:54.546Z,7.17
2018-10-05T23:47:21.835Z,7.50
2018-10-05T23:49:49.121Z,7.20
2018-10-05T23:52:42.520Z,7.13
2018-10-05T23:55:09.843Z,7.80
2018-10-05T23:57:37.824Z,7.97
